Corky — WDC3366 — position and weather

sailwx.info

Track history (hours):
 
Tides and Currents Weather Stations Pressure Air Temp Water Temp Dewpoint Dewpoint Depression Visibility Wind Speed Wind Dir Waves Ship Positions

Corky

Owner: Gulf South Marine Transportation, Inc., New Orleans, LA. More information available from US FCC via Universal Licensing System and Coast Guard Vessel Documentation Center.

Last reported at 2016-May-20 23:33 UTC. Time now 2016-May-28 11:52 UTC.
Position N 30°01' W 089°54'.

Length 18 m; draft 3.3 m.

Type: Tow > 200 m length. MMSI: 367006780.

Date/timePositionNaut miles runAvg speedWind from/ knotsBaromVisibWave heightAir tempDewpointWater temp
2016-May-20 23:33N 30°01' W 089°54'0 0.4
2016-May-20 22:33N 30°01' W 089°54'0 0.2
2016-May-20 21:28N 30°01' W 089°54'0 0.3
2016-May-20 20:28N 30°02' W 089°54'0 0.0
2016-May-20 19:28N 30°02' W 089°54'0 0.5
2016-May-20 18:33N 30°01' W 089°54'2 2.2
2016-May-20 17:33N 30°00' W 089°57'5 2.4
2016-May-20 15:31N 29°58' W 090°02'1 0.7
2016-May-20 14:33N 29°57' W 090°01'0 0.3
2016-May-20 13:33N 29°57' W 090°02'0 0.2
2016-May-20 12:33N 29°57' W 090°02'0 0.0
2016-May-20 11:33N 29°57' W 090°02'0 0.0
2016-May-20 10:33N 29°57' W 090°02'0 0.0
2016-May-20 09:33N 29°57' W 090°02'0 0.0
2016-May-20 08:33N 29°57' W 090°02'0 0.0
2016-May-20 07:33N 29°57' W 090°02'0 0.0
2016-May-20 06:33N 29°57' W 090°02'0 0.0
2016-May-20 05:33N 29°57' W 090°02'0 0.0
2016-May-20 03:33N 29°57' W 090°02'0 0.0
2016-May-20 02:33N 29°57' W 090°02'0 0.0
2016-May-20 01:33N 29°57' W 090°02'0 0.0
2016-May-20 00:33N 29°57' W 090°02'0 0.0
2016-May-19 23:33N 29°57' W 090°02'0 0.0
2016-May-19 22:33N 29°57' W 090°02'0 0.0
2016-May-19 21:33N 29°57' W 090°02'0 0.0
2016-May-19 20:33N 29°57' W 090°02'0 0.0
2016-May-19 19:33N 29°57' W 090°02'0 0.0
2016-May-19 18:33N 29°57' W 090°02'0 0.0
2016-May-19 17:33N 29°57' W 090°02'0 0.0
2016-May-19 16:33N 29°57' W 090°02'0 0.0
2016-May-19 15:33N 29°57' W 090°02'0 0.0
2016-May-19 14:33N 29°57' W 090°02'0 0.0
2016-May-19 13:33N 29°57' W 090°02'0 0.0
2016-May-19 12:33N 29°57' W 090°02'0 0.0
2016-May-19 11:33N 29°57' W 090°02'0 0.0
2016-May-19 10:33N 29°57' W 090°02'0 0.0
2016-May-19 09:33N 29°57' W 090°02'1 0.6
2016-May-19 08:33N 29°57' W 090°01'2 1.7
2016-May-19 07:33N 29°58' W 090°03'5 5.1
2016-May-19 06:33N 29°55' W 090°08'4 3.5
2016-May-19 05:32N 29°55' W 090°12'0 0.0
2016-May-18 03:33N 29°56' W 090°12'3 3.0
2016-May-18 02:33N 29°56' W 090°08'4 4.0
2016-May-18 01:33N 29°56' W 090°04'3 3.4
2016-May-18 00:33N 29°56' W 089°60'2 1.7
2016-May-17 23:33N 29°55' W 089°58'5 3.9
2016-May-17 22:20N 29°51' W 090°02'2 1.9
2016-May-17 21:32N 29°50' W 090°03'4 4.4
2016-May-17 20:33N 29°54' W 090°05'0 0.3
2016-May-17 19:33N 29°54' W 090°05'0 0.0
2016-May-17 18:33N 29°54' W 090°05'0 0.0
2016-May-17 17:33N 29°54' W 090°05'0 0.0
2016-May-17 16:33N 29°54' W 090°05'0 0.0
2016-May-17 12:33N 29°54' W 090°05'0 0.0
2016-May-17 11:33N 29°54' W 090°05'1 0.8
2016-May-17 10:33N 29°54' W 090°05'4 3.8
2016-May-17 09:33N 29°50' W 090°03'6 6.0
2016-May-17 08:33N 29°55' W 089°58'0 0.3
2016-May-17 07:33N 29°55' W 089°58'2 1.1
2016-May-17 05:33N 29°55' W 089°56'6 5.7
2016-May-17 04:33N 29°58' W 090°02'0 0.3
2016-May-17 03:34N 29°58' W 090°02'0 0.1
2016-May-17 02:33N 29°58' W 090°02'0 0.0
2016-May-17 01:33N 29°58' W 090°02'2 2.0
2016-May-17 00:33N 29°60' W 089°60'2 1.8
2016-May-16 23:33N 30°00' W 089°58'2 2.3
2016-May-16 22:33N 30°01' W 089°55'0 0.1
2016-May-16 21:20N 30°01' W 089°55'1 0.8
2016-May-16 20:08N 30°01' W 089°54'0 0.1
2016-May-16 19:12N 30°01' W 089°54'0 0.0
2016-May-16 18:22N 30°01' W 089°54'  
2016-May-11 14:33N 30°01' W 089°54'1 0.9
2016-May-11 13:33N 30°02' W 089°54'0 0.0
2016-May-11 12:33N 30°02' W 089°54'0 0.4
2016-May-11 11:31N 30°01' W 089°54'0 0.0
2016-May-11 10:33N 30°01' W 089°54'0 0.0
2016-May-11 09:33N 30°01' W 089°54'0 0.0
2016-May-11 08:33N 30°01' W 089°54'0 0.0
2016-May-11 07:33N 30°01' W 089°54'0 0.0
2016-May-11 06:33N 30°01' W 089°54'0 0.0
2016-May-11 05:33N 30°01' W 089°54'0 0.0
2016-May-11 04:33N 30°01' W 089°54'0 0.0
2016-May-11 03:33N 30°01' W 089°54'0 0.0
2016-May-11 02:33N 30°01' W 089°54'0 0.0
2016-May-11 01:33N 30°01' W 089°54'0 0.0
2016-May-11 00:33N 30°01' W 089°54'  
Track history (hours):
 
Tides and Currents Weather Stations Pressure Air Temp Water Temp Dewpoint Dewpoint Depression Visibility Wind Speed Wind Dir Waves Ship Positions

Corky

Owner: Gulf South Marine Transportation, Inc., New Orleans, LA. More information available from US FCC via Universal Licensing System and Coast Guard Vessel Documentation Center.

Last reported at 2016-May-20 23:33 UTC. Time now 2016-May-28 11:52 UTC.
Position N 30°01' W 089°54'.

Length 18 m; draft 3.3 m.

Type: Tow > 200 m length. MMSI: 367006780.

Date/timePositionNaut miles runAvg speedWind from/ knotsBaromVisibWave heightAir tempDewpointWater temp
2016-May-20 23:33N 30°01' W 089°54'0 0.4
2016-May-20 22:33N 30°01' W 089°54'0 0.2
2016-May-20 21:28N 30°01' W 089°54'0 0.3
2016-May-20 20:28N 30°02' W 089°54'0 0.0
2016-May-20 19:28N 30°02' W 089°54'0 0.5
2016-May-20 18:33N 30°01' W 089°54'2 2.2
2016-May-20 17:33N 30°00' W 089°57'5 2.4
2016-May-20 15:31N 29°58' W 090°02'1 0.7
2016-May-20 14:33N 29°57' W 090°01'0 0.3
2016-May-20 13:33N 29°57' W 090°02'0 0.2
2016-May-20 12:33N 29°57' W 090°02'0 0.0
2016-May-20 11:33N 29°57' W 090°02'0 0.0
2016-May-20 10:33N 29°57' W 090°02'0 0.0
2016-May-20 09:33N 29°57' W 090°02'0 0.0
2016-May-20 08:33N 29°57' W 090°02'0 0.0
2016-May-20 07:33N 29°57' W 090°02'0 0.0
2016-May-20 06:33N 29°57' W 090°02'0 0.0
2016-May-20 05:33N 29°57' W 090°02'0 0.0
2016-May-20 03:33N 29°57' W 090°02'0 0.0
2016-May-20 02:33N 29°57' W 090°02'0 0.0
2016-May-20 01:33N 29°57' W 090°02'0 0.0
2016-May-20 00:33N 29°57' W 090°02'0 0.0
2016-May-19 23:33N 29°57' W 090°02'0 0.0
2016-May-19 22:33N 29°57' W 090°02'0 0.0
2016-May-19 21:33N 29°57' W 090°02'0 0.0
2016-May-19 20:33N 29°57' W 090°02'0 0.0
2016-May-19 19:33N 29°57' W 090°02'0 0.0
2016-May-19 18:33N 29°57' W 090°02'0 0.0
2016-May-19 17:33N 29°57' W 090°02'0 0.0
2016-May-19 16:33N 29°57' W 090°02'0 0.0
2016-May-19 15:33N 29°57' W 090°02'0 0.0
2016-May-19 14:33N 29°57' W 090°02'0 0.0
2016-May-19 13:33N 29°57' W 090°02'0 0.0
2016-May-19 12:33N 29°57' W 090°02'0 0.0
2016-May-19 11:33N 29°57' W 090°02'0 0.0
2016-May-19 10:33N 29°57' W 090°02'0 0.0
2016-May-19 09:33N 29°57' W 090°02'1 0.6
2016-May-19 08:33N 29°57' W 090°01'2 1.7
2016-May-19 07:33N 29°58' W 090°03'5 5.1
2016-May-19 06:33N 29°55' W 090°08'4 3.5
2016-May-19 05:32N 29°55' W 090°12'0 0.0
2016-May-18 03:33N 29°56' W 090°12'3 3.0
2016-May-18 02:33N 29°56' W 090°08'4 4.0
2016-May-18 01:33N 29°56' W 090°04'3 3.4
2016-May-18 00:33N 29°56' W 089°60'2 1.7
2016-May-17 23:33N 29°55' W 089°58'5 3.9
2016-May-17 22:20N 29°51' W 090°02'2 1.9
2016-May-17 21:32N 29°50' W 090°03'4 4.4
2016-May-17 20:33N 29°54' W 090°05'0 0.3
2016-May-17 19:33N 29°54' W 090°05'0 0.0
2016-May-17 18:33N 29°54' W 090°05'0 0.0
2016-May-17 17:33N 29°54' W 090°05'0 0.0
2016-May-17 16:33N 29°54' W 090°05'0 0.0
2016-May-17 12:33N 29°54' W 090°05'0 0.0
2016-May-17 11:33N 29°54' W 090°05'1 0.8
2016-May-17 10:33N 29°54' W 090°05'4 3.8
2016-May-17 09:33N 29°50' W 090°03'6 6.0
2016-May-17 08:33N 29°55' W 089°58'0 0.3
2016-May-17 07:33N 29°55' W 089°58'2 1.1
2016-May-17 05:33N 29°55' W 089°56'6 5.7
2016-May-17 04:33N 29°58' W 090°02'0 0.3
2016-May-17 03:34N 29°58' W 090°02'0 0.1
2016-May-17 02:33N 29°58' W 090°02'0 0.0
2016-May-17 01:33N 29°58' W 090°02'2 2.0
2016-May-17 00:33N 29°60' W 089°60'2 1.8
2016-May-16 23:33N 30°00' W 089°58'2 2.3
2016-May-16 22:33N 30°01' W 089°55'0 0.1
2016-May-16 21:20N 30°01' W 089°55'1 0.8
2016-May-16 20:08N 30°01' W 089°54'0 0.1
2016-May-16 19:12N 30°01' W 089°54'0 0.0
2016-May-16 18:22N 30°01' W 089°54'  
2016-May-11 14:33N 30°01' W 089°54'1 0.9
2016-May-11 13:33N 30°02' W 089°54'0 0.0
2016-May-11 12:33N 30°02' W 089°54'0 0.4
2016-May-11 11:31N 30°01' W 089°54'0 0.0
2016-May-11 10:33N 30°01' W 089°54'0 0.0
2016-May-11 09:33N 30°01' W 089°54'0 0.0
2016-May-11 08:33N 30°01' W 089°54'0 0.0
2016-May-11 07:33N 30°01' W 089°54'0 0.0
2016-May-11 06:33N 30°01' W 089°54'0 0.0
2016-May-11 05:33N 30°01' W 089°54'0 0.0
2016-May-11 04:33N 30°01' W 089°54'0 0.0
2016-May-11 03:33N 30°01' W 089°54'0 0.0
2016-May-11 02:33N 30°01' W 089°54'0 0.0
2016-May-11 01:33N 30°01' W 089°54'0 0.0
2016-May-11 00:33N 30°01' W 089°54'  

Dump ship's entire track history